Time;durP1;ratioP1;P1;durP2;ratioP2;P2;SDS_P1;SDS_P2;PMS_P1;PMS_P2;Temp;Humidity;BMP_temperature;BMP_pressure;BME280_temperature;BME280_humidity;BME280_pressure;Samples;Min_cycle;Max_cycle;Signal;HPM_P1;HPM_P2
2022/08/19 00:00:27;;;;;;;6.10;5.53;;;19.40;78.50;;;;;;5000658;28;20022;-86
2022/08/19 00:02:53;;;;;;;8.93;8.02;;;19.40;78.10;;;;;;5001107;28;20044;-86
2022/08/19 00:05:18;;;;;;;6.43;5.80;;;19.30;78.00;;;;;;5002484;28;20432;-86
2022/08/19 00:07:44;;;;;;;6.28;5.63;;;19.30;78.80;;;;;;4999180;28;20046;-86
2022/08/19 00:10:11;;;;;;;5.70;5.20;;;19.30;79.70;;;;;;5006137;28;20033;-86
2022/08/19 00:12:37;;;;;;;7.43;5.97;;;19.20;78.60;;;;;;5004326;28;20481;-85
2022/08/19 00:15:04;;;;;;;6.32;5.72;;;19.20;78.90;;;;;;4990744;28;20069;-85
2022/08/19 00:17:30;;;;;;;7.45;5.68;;;19.30;80.40;;;;;;5002451;28;20072;-86
2022/08/19 00:19:55;;;;;;;9.52;8.45;;;19.30;81.10;;;;;;5003096;28;20061;-86
2022/08/19 00:22:21;;;;;;;10.40;8.52;;;19.30;79.50;;;;;;4986507;28;20037;-85
2022/08/19 00:24:47;;;;;;;9.60;7.97;;;19.20;78.90;;;;;;4988145;28;20034;-86
2022/08/19 00:27:13;;;;;;;9.73;8.70;;;19.00;78.80;;;;;;4991389;28;20118;-83
2022/08/19 00:29:38;;;;;;;6.78;6.18;;;18.90;78.90;;;;;;5023139;28;20041;-86
2022/08/19 00:32:05;;;;;;;8.10;7.30;;;18.80;79.00;;;;;;4997760;28;20037;-85
2022/08/19 00:34:30;;;;;;;6.35;5.75;;;18.70;79.20;;;;;;5006228;28;20045;-85
2022/08/19 00:36:56;;;;;;;11.63;9.15;;;18.70;79.30;;;;;;4994086;28;20041;-85
2022/08/19 00:39:22;;;;;;;9.63;8.65;;;18.60;79.10;;;;;;4990461;28;20041;-85
2022/08/19 00:41:49;;;;;;;9.13;7.13;;;18.60;79.60;;;;;;4985156;28;20048;-86
2022/08/19 00:44:16;;;;;;;5.90;5.40;;;18.50;79.40;;;;;;4986186;28;20034;-85
2022/08/19 00:46:43;;;;;;;7.55;6.10;;;18.50;80.00;;;;;;5004052;28;20481;-85
2022/08/19 00:49:14;;;;;;;5.55;5.05;;;18.50;79.70;;;;;;4988565;28;20029;-85
2022/08/19 00:51:40;;;;;;;9.52;8.63;;;18.50;80.00;;;;;;5000395;28;20551;-85
2022/08/19 00:54:05;;;;;;;9.82;8.88;;;18.40;79.80;;;;;;4986645;28;20030;-85
2022/08/19 00:56:31;;;;;;;10.13;9.05;;;18.40;79.70;;;;;;5001162;28;20064;-85
2022/08/19 00:58:56;;;;;;;11.27;9.63;;;18.30;80.20;;;;;;4988033;28;20405;-85
2022/08/19 01:01:22;;;;;;;11.10;9.93;;;18.20;80.50;;;;;;4989380;28;20374;-84
2022/08/19 01:03:48;;;;;;;12.23;9.88;;;18.10;80.50;;;;;;4988244;28;20385;-84
2022/08/19 01:06:14;;;;;;;8.23;7.53;;;18.10;80.40;;;;;;5000536;28;20045;-85
2022/08/19 01:08:40;;;;;;;11.07;9.93;;;18.10;80.50;;;;;;4990609;28;20038;-85
2022/08/19 01:11:05;;;;;;;11.45;10.13;;;18.10;80.60;;;;;;5000981;28;20057;-85
2022/08/19 01:13:32;;;;;;;12.70;11.40;;;18.10;80.80;;;;;;5002160;28;20072;-85
2022/08/19 01:16:03;;;;;;;11.48;10.35;;;18.00;82.60;;;;;;5000799;28;20167;-83
2022/08/19 01:18:30;;;;;;;12.15;10.63;;;18.00;82.00;;;;;;5001468;28;20102;-85
2022/08/19 01:20:57;;;;;;;12.15;10.93;;;18.00;81.50;;;;;;4989397;28;20038;-83
2022/08/19 01:23:42;;;;;;;14.05;9.63;;;17.90;81.40;;;;;;4983735;28;20029;-86
2022/08/19 01:26:15;;;;;;;6.55;5.95;;;17.90;81.70;;;;;;4990273;28;20037;-85
2022/08/19 01:28:41;;;;;;;8.90;8.05;;;17.90;81.70;;;;;;4989309;28;20045;-85
2022/08/19 01:31:10;;;;;;;13.63;9.13;;;18.00;81.90;;;;;;4989563;28;20064;-85
2022/08/19 01:33:35;;;;;;;15.38;9.90;;;17.90;82.60;;;;;;5003413;28;20109;-85
2022/08/19 01:36:08;;;;;;;11.52;9.95;;;17.90;82.40;;;;;;4988107;28;20053;-85
2022/08/19 01:38:36;;;;;;;12.35;11.25;;;17.80;83.60;;;;;;5000790;28;20041;-85
2022/08/19 01:41:01;;;;;;;14.23;10.88;;;17.70;84.00;;;;;;5004791;28;20393;-86
2022/08/19 01:43:27;;;;;;;12.43;11.23;;;17.60;86.40;;;;;;4986708;28;20030;-84
2022/08/19 01:45:52;;;;;;;12.32;11.02;;;17.50;87.20;;;;;;4988456;28;20518;-85
2022/08/19 01:48:18;;;;;;;12.88;10.52;;;17.50;88.70;;;;;;4989898;28;20029;-84
2022/08/19 01:50:44;;;;;;;12.88;11.20;;;17.50;86.00;;;;;;4989274;28;20061;-84
2022/08/19 01:53:10;;;;;;;12.35;11.05;;;17.50;85.70;;;;;;4999759;28;20091;-85
2022/08/19 01:55:37;;;;;;;12.77;11.50;;;17.50;86.80;;;;;;4985593;28;20037;-84
2022/08/19 01:58:03;;;;;;;13.63;12.18;;;17.50;86.80;;;;;;5004137;28;20034;-84
2022/08/19 02:00:29;;;;;;;12.45;11.15;;;17.40;87.00;;;;;;5001581;28;20022;-84
2022/08/19 02:02:55;;;;;;;16.65;12.05;;;17.40;88.50;;;;;;4989616;28;20029;-85
2022/08/19 02:05:21;;;;;;;13.68;11.45;;;17.30;91.20;;;;;;4986432;28;20035;-85
2022/08/19 02:07:47;;;;;;;13.85;12.40;;;17.30;91.70;;;;;;4987146;28;20067;-84
2022/08/19 02:10:14;;;;;;;14.15;12.57;;;17.20;90.40;;;;;;4991891;28;20037;-85
2022/08/19 02:12:40;;;;;;;13.43;12.15;;;17.30;91.90;;;;;;4980915;28;20137;-84
2022/08/19 02:15:07;;;;;;;12.82;11.48;;;17.30;92.30;;;;;;4985950;28;20183;-85
2022/08/19 02:17:33;;;;;;;14.43;12.45;;;17.10;94.10;;;;;;5000519;28;20080;-81
2022/08/19 02:19:59;;;;;;;13.27;11.98;;;17.10;94.70;;;;;;5002585;28;20029;-85
2022/08/19 02:22:27;;;;;;;9.63;8.73;;;17.10;93.20;;;;;;4998879;28;20032;-82
2022/08/19 02:24:54;;;;;;;12.73;11.48;;;17.10;91.40;;;;;;5003259;28;20299;-84
2022/08/19 02:27:19;;;;;;;12.80;11.48;;;17.20;91.20;;;;;;4988721;28;20108;-84
2022/08/19 02:29:49;;;;;;;9.20;8.30;;;17.20;93.00;;;;;;4988710;28;20490;-84
2022/08/19 02:32:15;;;;;;;11.13;10.13;;;17.20;91.90;;;;;;5000316;28;20296;-83
2022/08/19 02:34:40;;;;;;;12.35;11.15;;;17.30;92.30;;;;;;4989361;28;20489;-84
2022/08/19 02:38:24;;;;;;;9.57;8.57;;;17.20;93.10;;;;;;4978364;28;20068;-84
2022/08/19 02:39:51;;;;;;;13.73;10.57;;;17.10;91.80;;;;;;5003762;28;20038;-84
2022/08/19 02:42:17;;;;;;;12.05;10.35;;;17.10;92.30;;;;;;4987552;28;20271;-84
2022/08/19 02:44:42;;;;;;;9.25;8.35;;;17.10;91.90;;;;;;4968479;28;20068;-84
2022/08/19 02:47:09;;;;;;;7.43;6.72;;;17.10;92.40;;;;;;4987290;28;20647;-84
2022/08/19 02:49:35;;;;;;;9.27;8.48;;;17.20;92.40;;;;;;4986024;28;20037;-82
2022/08/19 02:52:01;;;;;;;12.20;10.93;;;17.10;92.30;;;;;;4981401;28;20026;-82
2022/08/19 02:54:27;;;;;;;9.95;8.95;;;17.00;94.20;;;;;;5020243;28;20370;-84
2022/08/19 02:56:53;;;;;;;11.13;9.98;;;17.00;92.80;;;;;;5000334;28;20037;-84
2022/08/19 02:59:18;;;;;;;8.57;6.85;;;16.90;93.40;;;;;;4999942;28;20087;-84
2022/08/19 03:01:44;;;;;;;11.32;9.95;;;17.00;92.80;;;;;;5003400;28;20025;-84
2022/08/19 03:04:11;;;;;;;9.73;8.88;;;17.00;93.10;;;;;;4996191;28;20037;-82
2022/08/19 03:06:41;;;;;;;9.32;7.97;;;17.10;93.20;;;;;;4998994;28;20113;-84
2022/08/19 03:09:06;;;;;;;9.55;7.70;;;17.00;93.30;;;;;;4986406;28;20390;-83
2022/08/19 03:11:32;;;;;;;12.23;9.77;;;17.00;93.20;;;;;;4986652;28;20080;-84
2022/08/19 03:13:58;;;;;;;11.80;10.57;;;16.90;93.00;;;;;;4979836;28;20085;-84
2022/08/19 03:16:25;;;;;;;12.07;10.68;;;16.90;94.90;;;;;;4987341;28;20073;-84
2022/08/19 03:18:51;;;;;;;7.82;7.13;;;16.90;94.70;;;;;;4989760;28;20091;-83
2022/08/19 03:21:18;;;;;;;7.95;7.15;;;17.00;94.50;;;;;;4989112;28;20114;-84
2022/08/19 03:23:44;;;;;;;8.77;7.43;;;17.10;94.50;;;;;;4994479;28;20111;-84
2022/08/19 03:26:10;;;;;;;10.32;9.32;;;16.90;93.90;;;;;;4993941;28;20583;-83
2022/08/19 03:28:37;;;;;;;11.50;10.27;;;17.00;95.00;;;;;;4997143;28;20053;-83
2022/08/19 03:31:08;;;;;;;11.73;9.90;;;16.90;94.10;;;;;;4988032;28;20105;-83
2022/08/19 03:33:34;;;;;;;10.05;9.13;;;16.80;93.80;;;;;;4999089;28;20062;-84
2022/08/19 03:36:12;;;;;;;12.30;11.10;;;16.80;94.60;;;;;;4988901;28;20083;-84
2022/08/19 03:38:40;;;;;;;13.27;10.52;;;16.70;94.40;;;;;;4998232;28;20029;-84
2022/08/19 03:41:08;;;;;;;11.32;10.13;;;16.70;95.40;;;;;;4985213;28;20032;-83
2022/08/19 03:43:35;;;;;;;9.07;8.18;;;16.70;94.80;;;;;;4999283;28;20041;-83
2022/08/19 03:46:09;;;;;;;7.35;6.55;;;16.70;95.10;;;;;;4988893;28;20030;-83
2022/08/19 03:48:35;;;;;;;8.02;7.32;;;16.80;94.80;;;;;;4999271;28;20037;-83
2022/08/19 03:51:02;;;;;;;8.00;7.20;;;17.00;95.00;;;;;;4986913;28;20755;-83
2022/08/19 03:53:28;;;;;;;7.70;7.10;;;17.00;95.70;;;;;;5001198;28;20037;-83
2022/08/19 03:55:54;;;;;;;11.68;10.45;;;16.80;95.10;;;;;;5002275;28;20028;-83
2022/08/19 03:58:20;;;;;;;7.88;6.40;;;16.80;95.80;;;;;;5000376;28;20030;-82
2022/08/19 04:00:45;;;;;;;12.52;9.75;;;16.80;96.10;;;;;;4998910;28;20475;-83
2022/08/19 04:03:11;;;;;;;7.63;6.82;;;16.90;97.20;;;;;;4989886;28;20108;-83
2022/08/19 04:05:37;;;;;;;11.32;10.07;;;16.90;96.70;;;;;;4989733;28;20029;-84
2022/08/19 04:08:03;;;;;;;11.38;7.90;;;16.80;97.60;;;;;;4987476;28;20041;-84
2022/08/19 04:10:29;;;;;;;12.52;8.55;;;16.80;96.60;;;;;;4992011;28;20482;-83
2022/08/19 04:12:54;;;;;;;8.18;7.38;;;16.70;97.20;;;;;;5003254;28;20037;-82
2022/08/19 04:15:20;;;;;;;12.50;10.48;;;16.80;97.40;;;;;;5006629;28;20374;-83
2022/08/19 04:17:46;;;;;;;10.00;8.98;;;16.80;97.70;;;;;;5004844;28;20052;-83
2022/08/19 04:20:11;;;;;;;8.18;7.32;;;16.80;97.50;;;;;;5002162;28;20018;-83
2022/08/19 04:22:37;;;;;;;7.60;6.65;;;16.80;97.30;;;;;;4990590;28;20052;-83
2022/08/19 04:25:03;;;;;;;7.60;6.80;;;16.90;97.60;;;;;;4989174;28;20108;-83
2022/08/19 04:27:29;;;;;;;11.38;9.52;;;16.80;97.10;;;;;;4991080;28;20108;-83
2022/08/19 04:29:54;;;;;;;10.57;9.55;;;16.70;97.60;;;;;;5002558;28;20040;-83
2022/08/19 04:32:20;;;;;;;17.02;11.32;;;16.60;96.90;;;;;;5001775;28;20057;-83
2022/08/19 04:34:46;;;;;;;9.85;7.65;;;16.40;96.70;;;;;;4991526;28;20042;-82
2022/08/19 04:37:13;;;;;;;8.13;7.20;;;16.40;97.10;;;;;;4988241;28;20116;-83
2022/08/19 04:42:38;;;;;;;14.15;12.20;;;16.30;96.80;;;;;;5002861;28;20083;-78
2022/08/19 04:45:05;;;;;;;13.02;11.60;;;16.20;98.00;;;;;;5005407;28;20131;-78
2022/08/19 04:47:32;;;;;;;13.68;12.23;;;16.20;97.50;;;;;;4987438;28;20481;-78
2022/08/19 04:49:57;;;;;;;15.70;12.82;;;16.20;97.60;;;;;;4989274;28;20040;-78
2022/08/19 04:52:23;;;;;;;12.05;10.85;;;16.20;97.20;;;;;;4990205;28;20104;-79
2022/08/19 04:54:49;;;;;;;15.88;13.63;;;16.20;97.30;;;;;;4990937;28;20045;-78
2022/08/19 04:57:15;;;;;;;16.77;13.57;;;16.20;96.90;;;;;;4990866;28;20033;-78
2022/08/19 04:59:40;;;;;;;18.13;13.82;;;16.20;97.70;;;;;;5002174;28;20056;-79
2022/08/19 05:02:07;;;;;;;20.23;14.00;;;16.20;97.20;;;;;;5004353;28;20531;-79
2022/08/19 05:04:33;;;;;;;14.65;12.52;;;16.20;96.80;;;;;;5003272;28;20889;-79
2022/08/19 05:07:00;;;;;;;16.38;13.45;;;16.20;98.20;;;;;;4991677;28;20038;-78
2022/08/19 05:09:25;;;;;;;17.77;14.30;;;16.30;97.80;;;;;;4989888;28;20041;-78
2022/08/19 05:11:53;;;;;;;16.25;13.93;;;16.30;97.60;;;;;;4989165;28;20034;-79
2022/08/19 05:14:19;;;;;;;12.93;11.55;;;16.20;97.00;;;;;;5003006;28;20063;-79
2022/08/19 05:16:45;;;;;;;15.38;13.13;;;16.30;98.50;;;;;;4997398;28;20159;-79
2022/08/19 05:24:38;;;;;;;10.48;9.45;;;16.50;99.50;;;;;;5003020;28;20081;-79
2022/08/19 05:27:05;;;;;;;10.63;9.40;;;16.50;98.10;;;;;;4987551;28;20025;-79
2022/08/19 05:29:31;;;;;;;8.68;7.78;;;16.60;98.30;;;;;;5000320;28;20460;-79
2022/08/19 05:31:57;;;;;;;15.90;13.30;;;16.70;97.50;;;;;;5002979;28;20040;-79
2022/08/19 05:34:24;;;;;;;11.68;10.57;;;16.90;97.90;;;;;;4990152;28;20037;-79
2022/08/19 05:36:51;;;;;;;11.88;10.30;;;17.00;98.10;;;;;;4990916;28;20183;-79
2022/08/19 05:39:18;;;;;;;9.90;8.27;;;17.00;97.80;;;;;;4988704;28;20042;-79
2022/08/19 05:41:46;;;;;;;17.88;13.48;;;17.00;97.50;;;;;;4998109;28;20034;-80
2022/08/19 05:44:11;;;;;;;9.95;9.02;;;17.10;97.10;;;;;;5003198;28;20057;-79
2022/08/19 05:46:37;;;;;;;8.60;7.38;;;17.20;96.80;;;;;;5000461;28;20061;-80
2022/08/19 05:49:06;;;;;;;14.10;12.30;;;17.20;97.20;;;;;;4999967;28;20482;-80
2022/08/19 05:51:33;;;;;;;14.48;10.82;;;17.50;98.90;;;;;;4999595;28;20068;-80
2022/08/19 05:54:01;;;;;;;16.73;13.27;;;17.50;96.80;;;;;;4984086;28;20893;-79
2022/08/19 05:56:26;;;;;;;15.15;13.55;;;17.60;96.90;;;;;;4983778;28;20088;-81
2022/08/19 05:58:53;;;;;;;9.63;7.63;;;17.60;96.80;;;;;;4986640;28;20046;-80
2022/08/19 06:01:20;;;;;;;8.05;7.32;;;17.70;96.90;;;;;;4988714;28;20030;-80
2022/08/19 06:03:47;;;;;;;6.95;6.20;;;17.70;96.10;;;;;;4983595;28;20088;-80
2022/08/19 06:06:13;;;;;;;18.65;13.80;;;17.90;96.40;;;;;;5001784;28;20040;-80
2022/08/19 06:08:39;;;;;;;7.22;5.90;;;17.90;97.70;;;;;;5002132;28;20030;-81
2022/08/19 06:11:19;;;;;;;14.73;10.30;;;18.00;96.10;;;;;;4989353;28;20040;-80
2022/08/19 06:13:47;;;;;;;6.60;5.97;;;18.00;96.60;;;;;;4981977;28;20599;-80
2022/08/19 06:16:19;;;;;;;12.45;10.73;;;18.10;95.80;;;;;;4989671;28;20045;-80
2022/08/19 06:18:44;;;;;;;17.00;13.70;;;18.30;95.80;;;;;;4989968;28;20046;-79
2022/08/19 06:21:10;;;;;;;7.13;5.90;;;18.40;96.10;;;;;;4987342;28;20030;-80
2022/08/19 06:23:36;;;;;;;11.27;9.38;;;18.50;95.60;;;;;;4987627;28;20026;-80
2022/08/19 06:26:01;;;;;;;17.75;15.52;;;18.60;95.40;;;;;;4985774;28;20122;-80
2022/08/19 06:28:27;;;;;;;10.90;9.77;;;18.80;97.30;;;;;;4989410;28;20064;-80
2022/08/19 06:30:52;;;;;;;9.88;8.95;;;18.90;95.90;;;;;;4999076;28;20033;-80
2022/08/19 06:33:18;;;;;;;24.63;18.33;;;19.00;96.10;;;;;;5001524;28;20124;-80
2022/08/19 06:35:45;;;;;;;9.95;8.95;;;19.20;98.00;;;;;;4988801;28;20116;-81
2022/08/19 06:38:10;;;;;;;16.52;11.88;;;19.40;96.30;;;;;;4987385;28;20379;-80
2022/08/19 06:40:37;;;;;;;18.58;14.10;;;19.60;97.80;;;;;;5001711;28;20110;-80
2022/08/19 06:43:02;;;;;;;22.15;17.88;;;19.70;97.90;;;;;;5006447;28;20029;-80
2022/08/19 06:45:28;;;;;;;16.08;12.10;;;19.80;97.20;;;;;;4966726;28;20384;-80
2022/08/19 06:47:55;;;;;;;16.15;13.40;;;19.90;96.80;;;;;;4983643;28;20770;-80
2022/08/19 06:50:22;;;;;;;17.25;13.57;;;19.90;96.80;;;;;;4985486;28;20485;-80
2022/08/19 06:52:48;;;;;;;18.75;14.10;;;19.90;96.70;;;;;;4998316;28;20041;-80
2022/08/19 06:55:15;;;;;;;21.85;17.02;;;20.00;96.70;;;;;;5002692;28;20848;-80
2022/08/19 06:57:42;;;;;;;17.98;14.05;;;20.00;96.60;;;;;;4998953;28;20045;-80
2022/08/19 07:00:11;;;;;;;19.13;15.27;;;20.00;96.70;;;;;;4998583;28;20076;-80
2022/08/19 07:02:38;;;;;;;24.23;19.40;;;20.00;97.10;;;;;;4998109;28;20037;-80
2022/08/19 07:05:06;;;;;;;24.10;18.80;;;20.10;97.50;;;;;;5003496;28;20068;-80
2022/08/19 07:07:32;;;;;;;24.92;17.80;;;20.10;98.00;;;;;;4995486;28;20510;-80
2022/08/19 07:09:58;;;;;;;22.77;18.20;;;20.20;97.80;;;;;;4982912;28;20062;-80
2022/08/19 07:12:23;;;;;;;23.60;19.52;;;20.30;97.40;;;;;;4986114;28;20041;-81
2022/08/19 07:14:50;;;;;;;29.00;20.10;;;20.30;97.10;;;;;;4985717;28;20037;-81
2022/08/19 07:17:15;;;;;;;17.50;15.20;;;20.40;96.80;;;;;;4983477;28;20085;-80
2022/08/19 07:19:42;;;;;;;23.13;17.00;;;20.50;96.60;;;;;;4986541;28;20026;-80
2022/08/19 07:22:07;;;;;;;22.30;17.90;;;20.60;97.90;;;;;;5003825;28;20033;-80
2022/08/19 07:24:33;;;;;;;18.35;15.60;;;20.60;96.80;;;;;;4990809;28;20033;-80
2022/08/19 07:27:02;;;;;;;18.85;14.45;;;20.80;96.70;;;;;;5005514;28;20068;-80
2022/08/19 07:29:29;;;;;;;21.48;16.80;;;20.80;96.80;;;;;;4997575;28;20114;-80
2022/08/19 07:31:56;;;;;;;28.65;20.13;;;21.00;97.60;;;;;;5003739;28;20392;-80
2022/08/19 07:34:22;;;;;;;19.75;15.38;;;21.20;97.20;;;;;;4983347;28;20065;-79
2022/08/19 07:36:47;;;;;;;23.90;18.23;;;21.30;96.80;;;;;;4997670;28;20041;-80
2022/08/19 07:39:25;;;;;;;22.55;18.73;;;21.50;97.90;;;;;;4999170;28;20029;-79
2022/08/19 07:41:50;;;;;;;21.25;15.55;;;21.60;96.60;;;;;;5003568;28;20438;-80
2022/08/19 07:44:16;;;;;;;26.50;19.05;;;21.80;97.10;;;;;;4990708;28;20060;-79
2022/08/19 07:46:48;;;;;;;23.17;17.88;;;22.00;96.80;;;;;;4992800;28;20037;-80
2022/08/19 07:49:18;;;;;;;26.15;18.92;;;22.10;97.50;;;;;;4991517;28;20083;-80
2022/08/19 07:51:46;;;;;;;20.90;17.58;;;22.30;97.30;;;;;;4991043;28;20030;-80
2022/08/19 07:54:11;;;;;;;27.20;21.02;;;22.40;96.60;;;;;;5004630;28;20489;-80
2022/08/19 07:56:37;;;;;;;24.92;18.58;;;22.50;96.90;;;;;;5004220;28;20087;-80
2022/08/19 07:59:03;;;;;;;41.65;29.30;;;22.60;96.80;;;;;;5024749;28;20075;-80
2022/08/19 08:01:28;;;;;;;18.80;15.10;;;22.70;96.70;;;;;;4991553;28;20163;-81
2022/08/19 08:09:32;;;;;;;29.70;22.02;;;23.00;96.80;;;;;;5004613;28;20099;-81
2022/08/19 08:12:01;;;;;;;27.27;19.48;;;23.30;96.20;;;;;;5000623;28;20913;-80
2022/08/19 08:14:32;;;;;;;42.40;29.55;;;23.40;96.40;;;;;;4990317;28;20041;-81
2022/08/19 08:16:57;;;;;;;28.70;20.98;;;23.50;95.90;;;;;;5000372;28;20465;-80
2022/08/19 08:19:24;;;;;;;33.35;24.80;;;23.60;96.00;;;;;;5001597;28;20026;-81
2022/08/19 08:21:50;;;;;;;31.20;26.63;;;23.70;95.80;;;;;;4990160;28;20072;-81
2022/08/19 08:24:15;;;;;;;28.88;23.08;;;23.70;95.50;;;;;;5001913;28;20057;-81
2022/08/19 08:26:42;;;;;;;42.17;33.20;;;23.80;95.70;;;;;;5003140;28;20055;-81
2022/08/19 08:29:11;;;;;;;30.45;24.23;;;23.90;95.90;;;;;;5003288;28;20437;-81
2022/08/19 08:31:36;;;;;;;28.38;22.80;;;24.10;96.30;;;;;;4988564;28;20065;-81
2022/08/19 08:34:02;;;;;;;21.52;19.23;;;24.10;95.70;;;;;;4986235;28;20457;-81
2022/08/19 08:36:28;;;;;;;22.90;19.13;;;24.30;95.00;;;;;;4990231;28;20030;-81
2022/08/19 08:38:53;;;;;;;28.27;19.65;;;24.30;94.50;;;;;;5002759;28;20068;-81
2022/08/19 08:41:36;;;;;;;26.88;22.00;;;24.50;95.30;;;;;;5003244;28;20033;-79
2022/08/19 08:44:04;;;;;;;30.60;24.15;;;24.90;94.60;;;;;;4988825;28;20557;-81
2022/08/19 08:46:38;;;;;;;26.55;16.95;;;25.20;94.90;;;;;;5003366;28;20534;-82
2022/08/19 08:49:34;;;;;;;23.88;17.50;;;25.50;94.00;;;;;;4974161;28;20493;-82
2022/08/19 08:52:02;;;;;;;24.25;20.35;;;25.60;94.00;;;;;;5005139;28;20049;-82
2022/08/19 08:54:37;;;;;;;24.52;20.42;;;25.70;93.60;;;;;;4996719;28;20037;-82
2022/08/19 08:57:07;;;;;;;21.83;18.30;;;25.90;93.30;;;;;;5002612;28;20084;-82
2022/08/19 08:59:35;;;;;;;24.00;18.25;;;26.10;92.50;;;;;;4986069;28;20042;-83
2022/08/19 09:02:00;;;;;;;34.58;29.45;;;26.20;92.20;;;;;;4989531;28;20030;-82
2022/08/19 09:04:26;;;;;;;25.63;16.13;;;26.30;93.00;;;;;;5002339;28;20037;-82
2022/08/19 09:07:15;;;;;;;24.02;18.48;;;26.40;92.00;;;;;;5002340;28;20076;-80
2022/08/19 09:09:43;;;;;;;18.85;14.25;;;26.50;92.40;;;;;;4991605;28;20037;-80
2022/08/19 09:12:27;;;;;;;17.52;13.07;;;26.80;91.80;;;;;;4989855;28;20041;-80
2022/08/19 09:14:59;;;;;;;18.08;14.18;;;27.10;90.20;;;;;;5021229;28;20041;-82
2022/08/19 09:17:33;;;;;;;18.75;12.27;;;27.30;89.90;;;;;;5000137;28;20366;-82
2022/08/19 09:20:06;;;;;;;17.30;15.23;;;27.30;90.00;;;;;;4988144;28;20060;-83
2022/08/19 09:22:32;;;;;;;13.30;11.43;;;27.60;88.80;;;;;;4999446;28;20095;-82
2022/08/19 09:24:58;;;;;;;24.42;17.70;;;27.70;89.30;;;;;;4991058;28;20030;-82
2022/08/19 09:27:24;;;;;;;13.77;11.57;;;27.90;86.20;;;;;;4991524;28;20083;-82
2022/08/19 09:29:50;;;;;;;13.63;7.53;;;28.00;85.90;;;;;;4988504;28;20038;-83
2022/08/19 09:32:17;;;;;;;9.38;8.43;;;28.00;85.00;;;;;;4999319;28;20068;-83
2022/08/19 09:34:43;;;;;;;21.38;14.18;;;28.00;86.60;;;;;;4992300;28;20426;-82
2022/08/19 09:37:09;;;;;;;17.55;13.48;;;28.10;86.30;;;;;;4977367;28;20029;-83
2022/08/19 09:39:34;;;;;;;10.95;9.60;;;28.10;85.50;;;;;;4990968;28;20159;-83
2022/08/19 09:42:00;;;;;;;16.17;13.15;;;28.10;85.80;;;;;;4990017;28;20029;-84
2022/08/19 09:44:25;;;;;;;12.60;9.52;;;28.10;86.30;;;;;;4997874;28;20037;-84
2022/08/19 09:46:51;;;;;;;15.00;11.50;;;28.30;86.80;;;;;;4987582;28;20034;-83
2022/08/19 09:49:18;;;;;;;13.60;11.93;;;28.30;84.90;;;;;;4998390;28;20280;-83
2022/08/19 09:51:43;;;;;;;11.35;8.85;;;28.50;82.70;;;;;;5001836;28;20029;-84
2022/08/19 09:54:09;;;;;;;12.35;7.38;;;28.70;83.40;;;;;;4990782;28;20580;-84
2022/08/19 09:56:35;;;;;;;10.70;9.10;;;28.80;82.40;;;;;;5002237;28;20132;-84
2022/08/19 09:59:03;;;;;;;12.35;9.93;;;28.90;82.10;;;;;;4987900;28;20033;-85
2022/08/19 10:01:30;;;;;;;9.70;7.13;;;29.00;81.90;;;;;;4989951;28;20138;-85
2022/08/19 10:03:56;;;;;;;13.57;9.77;;;29.20;81.40;;;;;;5000341;28;20037;-85
2022/08/19 10:06:25;;;;;;;14.43;12.57;;;29.40;80.20;;;;;;4987784;28;20312;-86
2022/08/19 10:08:51;;;;;;;15.98;12.80;;;29.70;77.70;;;;;;4988346;28;20116;-86
2022/08/19 10:11:17;;;;;;;15.23;11.20;;;29.90;78.00;;;;;;5000330;28;20050;-87
2022/08/19 10:13:49;;;;;;;17.52;11.63;;;29.90;77.10;;;;;;5000824;28;20039;-88
2022/08/19 10:16:19;;;;;;;16.90;13.35;;;30.10;76.90;;;;;;4992671;28;20036;-87
2022/08/19 10:18:44;;;;;;;15.88;14.32;;;30.20;75.20;;;;;;5001255;28;20029;-88
2022/08/19 10:21:14;;;;;;;17.23;11.90;;;30.20;75.50;;;;;;4989037;28;20527;-88
2022/08/19 10:23:44;;;;;;;12.68;10.85;;;30.30;74.90;;;;;;5000632;28;20034;-88
2022/08/19 10:26:11;;;;;;;11.27;9.68;;;30.30;75.30;;;;;;4986017;28;20055;-88
2022/08/19 10:28:37;;;;;;;13.90;11.93;;;30.40;74.10;;;;;;4988629;28;20042;-89
2022/08/19 10:31:06;;;;;;;13.48;11.90;;;30.70;73.40;;;;;;4644910;28;9999648;-89
2022/08/19 10:33:32;;;;;;;10.48;8.20;;;30.70;73.30;;;;;;4994743;28;20044;-88
2022/08/19 10:36:00;;;;;;;14.40;12.63;;;30.80;72.10;;;;;;4997603;28;20511;-89
2022/08/19 10:38:25;;;;;;;17.42;15.35;;;31.00;72.80;;;;;;5000125;28;20832;-89
2022/08/19 10:40:52;;;;;;;13.27;11.85;;;31.00;70.90;;;;;;4990355;28;20045;-86
2022/08/19 10:43:18;;;;;;;15.20;10.30;;;31.10;70.00;;;;;;4981675;28;20053;-87
2022/08/19 10:45:48;;;;;;;18.23;14.52;;;31.10;70.00;;;;;;4989914;28;20030;-90
2022/08/19 10:48:14;;;;;;;16.77;14.35;;;31.20;69.10;;;;;;4987083;28;20026;-88
2022/08/19 10:53:26;;;;;;;16.02;12.07;;;31.10;68.40;;;;;;5000216;28;20660;-90
2022/08/19 10:58:36;;;;;;;12.15;10.95;;;31.20;68.70;;;;;;4993357;28;20037;-90
2022/08/19 11:01:04;;;;;;;12.13;10.02;;;31.20;66.40;;;;;;4989493;28;20109;-88
2022/08/19 11:03:30;;;;;;;16.33;14.48;;;31.20;65.50;;;;;;4987311;28;20034;-89
2022/08/19 11:13:40;;;;;;;10.50;9.40;;;31.70;65.00;;;;;;5018984;28;19936;-84
2022/08/19 11:16:10;;;;;;;13.52;10.05;;;31.80;63.80;;;;;;4997718;28;20111;-84
2022/08/19 11:18:37;;;;;;;15.00;12.13;;;31.90;64.30;;;;;;4984753;28;20068;-84
2022/08/19 11:21:19;;;;;;;15.90;14.23;;;32.00;63.90;;;;;;4987957;28;20102;-83
2022/08/19 11:23:46;;;;;;;11.07;9.95;;;31.90;63.50;;;;;;4985642;28;20030;-83
2022/08/19 11:26:12;;;;;;;12.73;11.10;;;31.80;64.00;;;;;;4986607;28;20113;-83
2022/08/19 11:28:38;;;;;;;10.23;9.02;;;31.80;64.30;;;;;;4990067;28;20104;-83
2022/08/19 11:31:04;;;;;;;15.40;13.90;;;31.90;64.10;;;;;;5005032;28;20057;-83
2022/08/19 11:33:30;;;;;;;13.35;11.50;;;32.10;63.60;;;;;;4986980;28;20033;-82
2022/08/19 11:36:00;;;;;;;13.75;11.13;;;32.30;63.40;;;;;;4987496;28;20049;-82
2022/08/19 11:38:26;;;;;;;12.75;10.93;;;32.50;63.80;;;;;;4997377;28;20034;-82
2022/08/19 11:41:00;;;;;;;11.52;9.30;;;32.70;62.40;;;;;;4999337;28;20033;-81
2022/08/19 11:43:26;;;;;;;10.05;8.65;;;32.90;62.10;;;;;;4999064;28;20453;-81
2022/08/19 11:45:53;;;;;;;8.23;7.43;;;33.00;60.30;;;;;;5003922;28;20034;-81
2022/08/19 11:48:21;;;;;;;10.02;9.15;;;33.00;59.60;;;;;;5004407;28;20608;-81
2022/08/19 11:50:50;;;;;;;11.85;10.65;;;32.90;60.50;;;;;;4987259;28;20366;-80
2022/08/19 11:53:18;;;;;;;10.88;7.57;;;32.90;60.50;;;;;;5002871;28;20033;-80
2022/08/19 11:55:44;;;;;;;9.40;8.57;;;33.00;59.80;;;;;;4999580;28;20120;-80
2022/08/19 11:58:10;;;;;;;8.57;7.72;;;33.20;59.00;;;;;;5001452;28;20026;-80
2022/08/19 12:00:37;;;;;;;7.47;6.88;;;33.30;57.90;;;;;;5015636;28;20034;-79
2022/08/19 12:03:03;;;;;;;11.25;9.70;;;33.30;57.90;;;;;;4986712;28;20026;-80
2022/08/19 12:05:28;;;;;;;9.38;7.30;;;33.30;57.20;;;;;;5001096;28;20038;-80
2022/08/19 12:07:54;;;;;;;6.95;6.35;;;33.20;57.60;;;;;;4992025;28;20049;-80
2022/08/19 12:10:20;;;;;;;7.85;7.15;;;33.10;57.90;;;;;;5004961;28;20504;-80
2022/08/19 12:12:46;;;;;;;11.07;9.95;;;33.10;58.00;;;;;;4988025;28;20048;-80
2022/08/19 12:15:12;;;;;;;8.07;7.30;;;33.30;54.70;;;;;;4987270;28;20038;-80
2022/08/19 12:17:38;;;;;;;6.57;6.05;;;33.20;57.80;;;;;;4989588;28;20033;-80
2022/08/19 12:20:05;;;;;;;7.03;5.90;;;33.20;57.50;;;;;;5002682;28;20036;-80
2022/08/19 12:22:30;;;;;;;6.80;6.18;;;33.50;56.20;;;;;;4980545;28;20033;-80
2022/08/19 12:24:58;;;;;;;9.75;8.43;;;33.60;55.60;;;;;;5002417;28;20547;-80
2022/08/19 12:27:23;;;;;;;8.35;7.43;;;33.50;56.10;;;;;;4988458;28;20025;-80
2022/08/19 12:29:49;;;;;;;7.70;6.85;;;33.70;55.90;;;;;;4990871;28;20050;-80
2022/08/19 12:32:15;;;;;;;7.15;5.68;;;33.70;55.70;;;;;;5001327;28;20056;-80
2022/08/19 12:34:41;;;;;;;8.73;7.40;;;34.40;53.90;;;;;;5005413;28;20034;-80
2022/08/19 12:37:06;;;;;;;9.43;7.25;;;34.60;53.00;;;;;;4989891;28;20084;-79
2022/08/19 12:39:39;;;;;;;8.10;5.88;;;34.40;53.50;;;;;;4990311;28;20029;-80
2022/08/19 12:42:05;;;;;;;7.32;5.30;;;34.40;53.50;;;;;;5001174;28;20052;-80
2022/08/19 12:44:32;;;;;;;10.65;7.65;;;34.40;54.00;;;;;;4990430;28;20025;-79
2022/08/19 12:46:57;;;;;;;7.68;6.63;;;34.50;53.20;;;;;;4992745;28;20107;-80
2022/08/19 12:49:23;;;;;;;5.72;5.25;;;34.50;52.50;;;;;;4991564;28;20026;-80
2022/08/19 12:51:49;;;;;;;8.00;5.85;;;34.70;53.70;;;;;;5020303;28;20495;-80
2022/08/19 12:54:14;;;;;;;6.38;5.63;;;34.70;53.00;;;;;;4992071;28;20033;-80
2022/08/19 12:56:42;;;;;;;6.13;5.55;;;35.20;49.70;;;;;;5001832;28;20057;-80
2022/08/19 12:59:08;;;;;;;5.72;5.18;;;35.10;52.10;;;;;;5009699;28;20033;-80